Time;durP1;ratioP1;P1;durP2;ratioP2;P2;SDS_P1;SDS_P2;PMS_P1;PMS_P2;Temp;Humidity;BMP_temperature;BMP_pressure;BME280_temperature;BME280_humidity;BME280_pressure;Samples;Min_cycle;Max_cycle;Signal;HPM_P1;HPM_P2
2024/01/03 00:00:42;;;;;;;0.20;0.20;;;;;;;;;;6316903;28;20028;-78
2024/01/03 00:03:43;;;;;;;0.20;0.20;;;;;;;;;;6281341;28;20031;-78
2024/01/03 00:06:43;;;;;;;0.10;0.10;;;;;;;;;;6307609;28;20478;-77
2024/01/03 00:09:43;;;;;;;0.20;0.20;;;;;;;;;;6304102;28;20021;-77
2024/01/03 00:12:44;;;;;;;0.20;0.20;;;;;;;;;;6315663;28;20005;-77
2024/01/03 00:16:04;;;;;;;0.20;0.20;;;;;;;;;;6284842;28;20449;-78
2024/01/03 00:19:06;;;;;;;0.20;0.20;;;;;;;;;;6298808;28;20020;-78
2024/01/03 00:22:11;;;;;;;0.20;0.20;;;;;;;;;;6307330;28;20028;-77
2024/01/03 00:25:11;;;;;;;0.20;0.20;;;;;;;;;;6305119;28;20040;-78
2024/01/03 00:28:11;;;;;;;0.20;0.20;;;;;;;;;;6317432;28;20482;-79
2024/01/03 00:31:26;;;;;;;0.20;0.20;;;;;;;;;;6314228;28;20097;-79
2024/01/03 00:34:36;;;;;;;0.20;0.20;;;;;;;;;;6308176;28;20021;-79
2024/01/03 00:37:37;;;;;;;0.10;0.10;;;;;;;;;;6289605;28;20067;-77
2024/01/03 00:40:43;;;;;;;0.20;0.20;;;;;;;;;;6306464;28;20497;-77
2024/01/03 00:43:43;;;;;;;0.20;0.20;;;;;;;;;;6315185;28;20046;-76
2024/01/03 00:46:44;;;;;;;0.20;0.20;;;;;;;;;;6294758;28;20044;-76
2024/01/03 00:49:44;;;;;;;0.10;0.10;;;;;;;;;;6293966;28;20020;-77
2024/01/03 00:52:44;;;;;;;0.20;0.20;;;;;;;;;;6316854;28;20077;-77
2024/01/03 00:55:45;;;;;;;0.10;0.10;;;;;;;;;;6293194;28;20040;-77
2024/01/03 00:58:45;;;;;;;0.20;0.20;;;;;;;;;;6306009;28;20040;-76
2024/01/03 01:01:46;;;;;;;0.20;0.20;;;;;;;;;;6292095;28;20024;-76
2024/01/03 01:04:46;;;;;;;0.20;0.20;;;;;;;;;;6306567;28;20020;-77
2024/01/03 01:07:47;;;;;;;0.20;0.20;;;;;;;;;;6295673;28;20047;-77
2024/01/03 01:10:47;;;;;;;0.20;0.20;;;;;;;;;;6294238;28;20292;-77
2024/01/03 01:13:47;;;;;;;0.20;0.20;;;;;;;;;;6291588;28;20100;-77
2024/01/03 01:16:47;;;;;;;0.20;0.20;;;;;;;;;;6308620;28;20031;-77
2024/01/03 01:19:47;;;;;;;0.20;0.20;;;;;;;;;;6321599;28;20111;-77
2024/01/03 01:22:48;;;;;;;0.20;0.20;;;;;;;;;;6314163;28;20048;-77
2024/01/03 01:25:48;;;;;;;0.15;0.15;;;;;;;;;;6301255;28;20048;-76
2024/01/03 01:28:48;;;;;;;0.20;0.20;;;;;;;;;;6281241;28;20032;-77
2024/01/03 01:31:48;;;;;;;0.20;0.20;;;;;;;;;;6280904;28;20399;-77
2024/01/03 01:34:48;;;;;;;0.20;0.20;;;;;;;;;;6280581;28;20436;-77
2024/01/03 01:37:48;;;;;;;0.20;0.20;;;;;;;;;;6253471;28;20107;-76
2024/01/03 01:40:50;;;;;;;0.20;0.20;;;;;;;;;;6259407;28;20066;-76
2024/01/03 01:43:50;;;;;;;0.20;0.20;;;;;;;;;;6277635;28;20020;-77
2024/01/03 01:46:50;;;;;;;0.20;0.20;;;;;;;;;;6275881;28;20271;-76
2024/01/03 01:49:52;;;;;;;0.20;0.20;;;;;;;;;;6292455;28;20064;-77
2024/01/03 01:52:53;;;;;;;0.20;0.20;;;;;;;;;;6295987;28;20086;-76
2024/01/03 01:55:53;;;;;;;0.20;0.20;;;;;;;;;;6279817;28;20021;-76
2024/01/03 01:58:53;;;;;;;0.20;0.20;;;;;;;;;;6275892;28;20021;-77
2024/01/03 02:01:54;;;;;;;0.20;0.20;;;;;;;;;;6270160;28;20020;-77
2024/01/03 02:04:54;;;;;;;0.20;0.20;;;;;;;;;;6285888;28;20478;-76
2024/01/03 02:07:54;;;;;;;0.20;0.20;;;;;;;;;;6282908;28;20512;-77
2024/01/03 02:10:55;;;;;;;0.20;0.20;;;;;;;;;;6276636;28;20008;-77
2024/01/03 02:13:55;;;;;;;0.20;0.20;;;;;;;;;;6281179;28;20020;-77
2024/01/03 02:16:55;;;;;;;0.20;0.20;;;;;;;;;;6276507;28;20052;-77
2024/01/03 02:20:00;;;;;;;0.10;0.10;;;;;;;;;;6307442;28;20466;-77
2024/01/03 02:23:00;;;;;;;0.20;0.20;;;;;;;;;;6286609;28;20037;-81
2024/01/03 02:26:01;;;;;;;0.20;0.20;;;;;;;;;;6298266;28;20128;-76
2024/01/03 02:29:01;;;;;;;0.20;0.20;;;;;;;;;;6295026;28;20467;-77
2024/01/03 02:32:01;;;;;;;0.20;0.20;;;;;;;;;;6302811;28;20445;-77
2024/01/03 02:35:01;;;;;;;0.20;0.20;;;;;;;;;;6294346;28;20040;-80
2024/01/03 02:38:02;;;;;;;0.20;0.20;;;;;;;;;;6316852;28;20024;-82
2024/01/03 02:41:02;;;;;;;0.20;0.20;;;;;;;;;;6304742;28;20500;-82
2024/01/03 02:44:02;;;;;;;0.20;0.20;;;;;;;;;;6301228;28;20024;-83
2024/01/03 02:47:02;;;;;;;0.20;0.20;;;;;;;;;;6307426;28;20104;-82
2024/01/03 02:50:03;;;;;;;0.10;0.10;;;;;;;;;;6308111;28;20054;-82
2024/01/03 02:53:03;;;;;;;0.13;0.13;;;;;;;;;;6309941;28;20021;-82
2024/01/03 02:56:03;;;;;;;0.20;0.20;;;;;;;;;;6280930;28;20020;-82
2024/01/03 02:59:04;;;;;;;0.20;0.20;;;;;;;;;;6317188;28;20383;-79
2024/01/03 03:02:04;;;;;;;0.20;0.20;;;;;;;;;;6306453;28;20021;-82
2024/01/03 03:05:04;;;;;;;0.20;0.20;;;;;;;;;;6316536;28;20066;-81
2024/01/03 03:08:05;;;;;;;0.20;0.20;;;;;;;;;;6312879;28;20474;-81
2024/01/03 03:11:06;;;;;;;0.20;0.20;;;;;;;;;;6307901;28;20016;-80
2024/01/03 03:14:07;;;;;;;0.20;0.20;;;;;;;;;;6303550;28;20631;-79
2024/01/03 03:17:08;;;;;;;0.20;0.20;;;;;;;;;;6301901;28;20044;-79
2024/01/03 03:20:08;;;;;;;0.20;0.20;;;;;;;;;;6314533;28;20482;-81
2024/01/03 03:23:08;;;;;;;0.20;0.20;;;;;;;;;;6287320;28;20035;-77
2024/01/03 03:26:10;;;;;;;0.20;0.20;;;;;;;;;;6317035;28;20463;-81
2024/01/03 03:29:10;;;;;;;;;;;;;;;;;;6300595;28;20031;-81
2024/01/03 03:32:11;;;;;;;0.20;0.20;;;;;;;;;;6286489;28;19927;-82
2024/01/03 03:35:11;;;;;;;0.20;0.20;;;;;;;;;;6315882;28;20039;-81
2024/01/03 03:38:11;;;;;;;0.20;0.20;;;;;;;;;;6298682;28;20527;-82
2024/01/03 03:41:12;;;;;;;0.20;0.20;;;;;;;;;;6313160;28;20013;-82
2024/01/03 03:44:12;;;;;;;0.20;0.20;;;;;;;;;;6308688;28;20107;-82
2024/01/03 03:47:12;;;;;;;0.20;0.20;;;;;;;;;;6274645;28;20020;-81
2024/01/03 03:50:12;;;;;;;0.20;0.20;;;;;;;;;;6309874;28;20489;-82
2024/01/03 03:53:13;;;;;;;0.20;0.20;;;;;;;;;;6291950;28;20012;-83
2024/01/03 03:56:26;;;;;;;0.20;0.20;;;;;;;;;;6288760;28;20012;-83
2024/01/03 03:59:26;;;;;;;0.20;0.20;;;;;;;;;;6296896;28;20035;-83
2024/01/03 04:02:26;;;;;;;0.20;0.20;;;;;;;;;;6312886;28;20024;-83
2024/01/03 04:05:26;;;;;;;0.10;0.10;;;;;;;;;;6286590;28;20094;-82
2024/01/03 04:08:26;;;;;;;0.20;0.20;;;;;;;;;;6311583;28;20026;-82
2024/01/03 04:11:27;;;;;;;0.20;0.20;;;;;;;;;;6285016;28;20498;-83
2024/01/03 04:14:27;;;;;;;0.20;0.20;;;;;;;;;;6306182;28;20015;-84
2024/01/03 04:17:27;;;;;;;0.20;0.20;;;;;;;;;;6300082;28;20155;-83
2024/01/03 04:20:27;;;;;;;0.20;0.20;;;;;;;;;;6310288;28;20058;-82
2024/01/03 04:23:27;;;;;;;0.20;0.20;;;;;;;;;;6308113;28;20123;-83
2024/01/03 04:26:28;;;;;;;0.20;0.20;;;;;;;;;;6289169;28;20039;-84
2024/01/03 04:29:28;;;;;;;0.10;0.10;;;;;;;;;;6305078;28;20024;-84
2024/01/03 04:32:29;;;;;;;0.20;0.20;;;;;;;;;;6296209;28;20047;-83
2024/01/03 04:35:29;;;;;;;0.10;0.10;;;;;;;;;;6288196;28;20020;-83
2024/01/03 04:38:32;;;;;;;0.10;0.10;;;;;;;;;;6315081;28;20023;-83
2024/01/03 04:41:32;;;;;;;0.20;0.20;;;;;;;;;;6311029;28;20494;-82
2024/01/03 04:44:34;;;;;;;0.20;0.20;;;;;;;;;;6307690;28;20036;-83
2024/01/03 04:47:34;;;;;;;0.20;0.20;;;;;;;;;;6309106;28;20019;-82
2024/01/03 04:50:34;;;;;;;0.20;0.20;;;;;;;;;;6302622;28;20008;-82
2024/01/03 04:53:35;;;;;;;0.10;0.10;;;;;;;;;;6309358;28;20336;-82
2024/01/03 04:56:35;;;;;;;0.10;0.10;;;;;;;;;;6308732;28;20480;-82
2024/01/03 04:59:35;;;;;;;0.20;0.20;;;;;;;;;;6315801;28;20016;-81
2024/01/03 05:02:36;;;;;;;0.20;0.20;;;;;;;;;;6294250;28;20433;-82
2024/01/03 05:05:36;;;;;;;0.20;0.20;;;;;;;;;;6314321;28;20107;-81
2024/01/03 05:08:37;;;;;;;0.20;0.20;;;;;;;;;;6329491;28;20278;-81
2024/01/03 05:11:37;;;;;;;0.20;0.20;;;;;;;;;;6316694;28;20016;-82
2024/01/03 05:14:37;;;;;;;0.20;0.20;;;;;;;;;;6309564;28;20024;-83
2024/01/03 05:17:37;;;;;;;0.20;0.20;;;;;;;;;;6308522;28;20032;-82
2024/01/03 05:20:38;;;;;;;0.20;0.20;;;;;;;;;;6303851;28;20016;-83
2024/01/03 05:23:38;;;;;;;0.20;0.20;;;;;;;;;;6294784;28;20474;-81
2024/01/03 05:26:38;;;;;;;0.10;0.10;;;;;;;;;;6305363;28;20032;-83
2024/01/03 05:29:38;;;;;;;0.10;0.10;;;;;;;;;;6313647;28;20055;-83
2024/01/03 05:32:38;;;;;;;0.20;0.20;;;;;;;;;;6291006;28;20012;-82
2024/01/03 05:35:39;;;;;;;0.20;0.20;;;;;;;;;;6313877;28;20028;-84
2024/01/03 05:38:39;;;;;;;0.20;0.20;;;;;;;;;;6316662;28;20091;-83
2024/01/03 05:41:39;;;;;;;0.20;0.20;;;;;;;;;;6313582;28;20024;-82
2024/01/03 05:44:39;;;;;;;0.20;0.20;;;;;;;;;;6310898;28;20063;-82
2024/01/03 05:47:39;;;;;;;0.10;0.10;;;;;;;;;;6296000;28;20353;-82
2024/01/03 05:50:40;;;;;;;0.20;0.20;;;;;;;;;;6295121;28;20009;-83
2024/01/03 05:53:46;;;;;;;0.20;0.20;;;;;;;;;;6277470;28;20107;-82
2024/01/03 05:56:47;;;;;;;0.20;0.20;;;;;;;;;;6285620;28;20025;-82
2024/01/03 05:59:47;;;;;;;0.10;0.10;;;;;;;;;;6295450;28;20525;-83
2024/01/03 06:02:47;;;;;;;0.20;0.20;;;;;;;;;;6302636;28;20173;-83
2024/01/03 06:05:48;;;;;;;0.20;0.20;;;;;;;;;;6313758;28;20024;-82
2024/01/03 06:08:48;;;;;;;0.20;0.20;;;;;;;;;;6306763;28;20031;-82
2024/01/03 06:11:48;;;;;;;0.20;0.20;;;;;;;;;;6315154;28;20022;-83
2024/01/03 06:14:48;;;;;;;0.20;0.20;;;;;;;;;;6287337;28;20800;-82
2024/01/03 06:17:48;;;;;;;0.20;0.20;;;;;;;;;;6325940;28;20086;-83
2024/01/03 06:20:49;;;;;;;0.20;0.20;;;;;;;;;;6307014;28;20017;-83
2024/01/03 06:23:49;;;;;;;0.17;0.17;;;;;;;;;;6318234;28;20065;-82
2024/01/03 06:26:49;;;;;;;0.20;0.20;;;;;;;;;;6306076;28;20044;-82
2024/01/03 06:29:49;;;;;;;0.20;0.20;;;;;;;;;;6294489;28;20012;-82
2024/01/03 06:32:50;;;;;;;0.20;0.20;;;;;;;;;;6307159;28;20066;-83
2024/01/03 06:35:50;;;;;;;0.10;0.10;;;;;;;;;;6314125;28;20087;-84
2024/01/03 06:38:50;;;;;;;0.10;0.10;;;;;;;;;;6318958;28;20085;-83
2024/01/03 06:41:50;;;;;;;0.20;0.20;;;;;;;;;;6308977;28;20127;-85
2024/01/03 06:44:50;;;;;;;0.10;0.10;;;;;;;;;;6290689;28;20024;-85
2024/01/03 06:47:51;;;;;;;0.10;0.10;;;;;;;;;;6315124;28;20028;-83
2024/01/03 06:50:51;;;;;;;0.20;0.20;;;;;;;;;;6293387;28;20095;-84
2024/01/03 06:53:51;;;;;;;0.20;0.20;;;;;;;;;;6292459;28;20017;-84
2024/01/03 06:56:51;;;;;;;0.20;0.20;;;;;;;;;;6289319;28;20012;-84
2024/01/03 06:59:52;;;;;;;0.10;0.10;;;;;;;;;;6295004;28;20047;-84
2024/01/03 07:02:52;;;;;;;0.20;0.20;;;;;;;;;;6303370;28;20477;-84
2024/01/03 07:05:52;;;;;;;0.10;0.10;;;;;;;;;;6317602;28;20024;-83
2024/01/03 07:08:53;;;;;;;0.10;0.10;;;;;;;;;;6294808;28;20024;-84
2024/01/03 07:11:54;;;;;;;0.10;0.10;;;;;;;;;;6298107;28;20099;-84
2024/01/03 07:14:56;;;;;;;0.20;0.20;;;;;;;;;;6307957;28;20027;-82
2024/01/03 07:17:56;;;;;;;0.20;0.20;;;;;;;;;;6301614;28;20435;-83
2024/01/03 07:20:57;;;;;;;0.10;0.10;;;;;;;;;;6294891;28;20031;-84
2024/01/03 07:23:58;;;;;;;0.10;0.10;;;;;;;;;;6296646;28;20046;-84
2024/01/03 07:26:58;;;;;;;0.10;0.10;;;;;;;;;;6314074;28;20040;-84
2024/01/03 07:29:58;;;;;;;0.20;0.20;;;;;;;;;;6282651;28;20020;-83
2024/01/03 07:32:58;;;;;;;0.17;0.17;;;;;;;;;;6304172;28;20021;-82
2024/01/03 07:35:58;;;;;;;0.10;0.10;;;;;;;;;;6289375;28;20021;-78
2024/01/03 07:39:00;;;;;;;0.20;0.20;;;;;;;;;;6309733;28;20466;-79
2024/01/03 07:42:00;;;;;;;0.10;0.10;;;;;;;;;;6297550;28;20028;-81
2024/01/03 07:45:00;;;;;;;0.10;0.10;;;;;;;;;;6283319;28;20476;-81
2024/01/03 07:48:00;;;;;;;0.20;0.20;;;;;;;;;;6306783;28;20036;-81
2024/01/03 07:51:01;;;;;;;0.15;0.15;;;;;;;;;;6293129;28;20013;-81
2024/01/03 07:54:02;;;;;;;0.10;0.10;;;;;;;;;;6302912;28;20471;-81
2024/01/03 07:57:04;;;;;;;0.20;0.20;;;;;;;;;;6301413;28;20031;-81
2024/01/03 08:00:05;;;;;;;0.20;0.20;;;;;;;;;;6305616;28;20323;-80
2024/01/03 08:03:06;;;;;;;0.10;0.10;;;;;;;;;;6308049;28;20024;-80
2024/01/03 08:06:06;;;;;;;0.20;0.20;;;;;;;;;;6297187;28;20348;-79
2024/01/03 08:09:08;;;;;;;0.20;0.20;;;;;;;;;;6303373;28;20039;-79
2024/01/03 08:12:09;;;;;;;0.20;0.20;;;;;;;;;;6313299;28;20047;-80
2024/01/03 08:15:09;;;;;;;0.10;0.10;;;;;;;;;;6316877;28;20479;-80
2024/01/03 08:18:09;;;;;;;0.10;0.10;;;;;;;;;;6312163;28;20031;-79
2024/01/03 08:21:09;;;;;;;0.10;0.10;;;;;;;;;;6314123;28;20024;-79
2024/01/03 08:24:09;;;;;;;0.10;0.10;;;;;;;;;;6298792;28;20016;-80
2024/01/03 08:27:09;;;;;;;0.10;0.10;;;;;;;;;;6309331;28;20067;-80
2024/01/03 08:30:10;;;;;;;0.10;0.10;;;;;;;;;;6295597;28;20020;-79
2024/01/03 08:33:10;;;;;;;0.10;0.10;;;;;;;;;;6306766;28;20028;-79
2024/01/03 08:36:11;;;;;;;0.20;0.20;;;;;;;;;;6312042;28;20069;-78
2024/01/03 08:39:11;;;;;;;0.13;0.13;;;;;;;;;;6303632;28;20020;-79
2024/01/03 08:42:11;;;;;;;0.10;0.10;;;;;;;;;;6298287;28;20390;-78
2024/01/03 08:45:12;;;;;;;0.10;0.10;;;;;;;;;;6313692;28;20154;-78
2024/01/03 08:48:12;;;;;;;0.20;0.20;;;;;;;;;;6306263;28;20105;-78
2024/01/03 08:51:13;;;;;;;0.20;0.20;;;;;;;;;;6306904;28;20012;-78
2024/01/03 08:54:16;;;;;;;0.10;0.10;;;;;;;;;;6310887;28;20016;-76
2024/01/03 08:57:16;;;;;;;0.10;0.10;;;;;;;;;;6294274;28;20071;-77
2024/01/03 09:00:17;;;;;;;0.20;0.20;;;;;;;;;;6297619;28;20032;-77
2024/01/03 09:03:17;;;;;;;0.10;0.10;;;;;;;;;;6315040;28;20030;-77
2024/01/03 09:06:18;;;;;;;0.10;0.10;;;;;;;;;;6316792;28;20016;-77
2024/01/03 09:09:18;;;;;;;0.10;0.10;;;;;;;;;;6303787;28;20020;-77
2024/01/03 09:12:22;;;;;;;0.10;0.10;;;;;;;;;;6314607;28;20674;-78
2024/01/03 09:15:22;;;;;;;0.10;0.10;;;;;;;;;;6300215;28;20441;-77
2024/01/03 09:18:22;;;;;;;0.10;0.10;;;;;;;;;;6308868;28;20020;-77
2024/01/03 09:21:23;;;;;;;0.10;0.10;;;;;;;;;;6314759;28;20094;-77
2024/01/03 09:24:24;;;;;;;0.10;0.10;;;;;;;;;;6321488;28;20043;-78
2024/01/03 09:27:24;;;;;;;0.10;0.10;;;;;;;;;;6306964;28;20201;-79
2024/01/03 09:30:24;;;;;;;0.10;0.10;;;;;;;;;;6312634;28;20016;-79
2024/01/03 09:33:25;;;;;;;0.10;0.10;;;;;;;;;;6309137;28;20017;-79
2024/01/03 09:36:27;;;;;;;0.20;0.20;;;;;;;;;;6310436;28;20019;-79
2024/01/03 09:39:27;;;;;;;0.10;0.10;;;;;;;;;;6308331;28;20394;-80
2024/01/03 09:42:28;;;;;;;0.20;0.20;;;;;;;;;;6321496;28;20020;-78
2024/01/03 09:45:29;;;;;;;0.10;0.10;;;;;;;;;;6315543;28;20017;-79
2024/01/03 09:48:29;;;;;;;0.10;0.10;;;;;;;;;;6318684;28;20032;-79
2024/01/03 09:51:30;;;;;;;0.10;0.10;;;;;;;;;;6308784;28;20489;-79
2024/01/03 09:54:32;;;;;;;0.13;0.13;;;;;;;;;;6311114;28;20019;-79
2024/01/03 09:57:33;;;;;;;0.13;0.13;;;;;;;;;;6284309;28;20016;-78
2024/01/03 10:00:33;;;;;;;0.10;0.10;;;;;;;;;;6310804;28;20383;-79
2024/01/03 10:03:33;;;;;;;0.10;0.10;;;;;;;;;;6293789;28;20039;-85
2024/01/03 10:06:49;;;;;;;0.10;0.10;;;;;;;;;;6293950;28;20021;-83
2024/01/03 10:09:49;;;;;;;0.10;0.10;;;;;;;;;;6279945;28;20035;-85
2024/01/03 10:12:49;;;;;;;0.10;0.10;;;;;;;;;;6318072;28;20477;-85
2024/01/03 10:15:50;;;;;;;0.10;0.10;;;;;;;;;;6300941;28;20039;-85
2024/01/03 10:19:06;;;;;;;0.10;0.10;;;;;;;;;;6301879;28;20024;-84
2024/01/03 10:22:06;;;;;;;0.10;0.10;;;;;;;;;;6296733;28;20432;-84
2024/01/03 10:25:13;;;;;;;0.10;0.10;;;;;;;;;;6319566;28;20020;-85
2024/01/03 10:28:17;;;;;;;0.10;0.10;;;;;;;;;;6305209;28;20024;-85
2024/01/03 10:31:23;;;;;;;0.10;0.10;;;;;;;;;;6294556;28;20056;-86
2024/01/03 10:34:23;;;;;;;0.10;0.10;;;;;;;;;;6300684;28;20020;-86
2024/01/03 10:37:23;;;;;;;0.10;0.10;;;;;;;;;;6293169;28;20798;-83
2024/01/03 10:40:24;;;;;;;0.10;0.10;;;;;;;;;;6286947;28;20206;-83
2024/01/03 10:43:24;;;;;;;0.20;0.20;;;;;;;;;;6321895;28;20148;-80
2024/01/03 10:46:25;;;;;;;0.10;0.10;;;;;;;;;;6319951;28;20020;-79
2024/01/03 10:49:26;;;;;;;0.10;0.10;;;;;;;;;;6308897;28;20107;-79
2024/01/03 10:52:29;;;;;;;0.10;0.10;;;;;;;;;;6301748;28;20378;-80
2024/01/03 10:55:34;;;;;;;0.10;0.10;;;;;;;;;;6306001;28;20026;-78
2024/01/03 10:58:37;;;;;;;0.10;0.10;;;;;;;;;;6319639;28;20081;-80
2024/01/03 11:01:46;;;;;;;0.10;0.10;;;;;;;;;;6301139;28;20368;-79
2024/01/03 11:04:53;;;;;;;0.10;0.10;;;;;;;;;;6290714;28;20386;-79
2024/01/03 11:07:58;;;;;;;0.10;0.10;;;;;;;;;;6311934;28;20016;-79
2024/01/03 11:10:59;;;;;;;0.10;0.10;;;;;;;;;;6299567;28;20027;-79
2024/01/03 11:14:00;;;;;;;0.10;0.10;;;;;;;;;;6283340;28;20012;-78
2024/01/03 11:17:01;;;;;;;0.10;0.10;;;;;;;;;;6299972;28;20070;-79
2024/01/03 11:20:05;;;;;;;0.10;0.10;;;;;;;;;;6315307;28;20536;-79
2024/01/03 11:23:06;;;;;;;0.10;0.10;;;;;;;;;;6286107;28;20031;-78
2024/01/03 11:26:06;;;;;;;0.10;0.10;;;;;;;;;;6294892;28;20045;-79
2024/01/03 11:29:06;;;;;;;0.10;0.10;;;;;;;;;;6295869;28;20099;-79
2024/01/03 11:32:07;;;;;;;0.10;0.10;;;;;;;;;;6303373;28;20021;-78
2024/01/03 11:35:08;;;;;;;0.10;0.10;;;;;;;;;;6308002;28;20099;-79
2024/01/03 11:38:08;;;;;;;0.10;0.10;;;;;;;;;;6321133;28;20055;-79
2024/01/03 11:41:14;;;;;;;0.10;0.10;;;;;;;;;;6301677;28;20479;-80
2024/01/03 11:44:23;;;;;;;0.10;0.10;;;;;;;;;;6304173;28;20023;-79
2024/01/03 11:47:23;;;;;;;0.10;0.10;;;;;;;;;;6304889;28;20454;-79
2024/01/03 11:50:29;;;;;;;0.10;0.10;;;;;;;;;;6312810;28;20016;-80
2024/01/03 11:53:29;;;;;;;0.10;0.10;;;;;;;;;;6296448;28;20121;-85
2024/01/03 11:56:31;;;;;;;0.10;0.10;;;;;;;;;;6313529;28;20471;-85
2024/01/03 11:59:33;;;;;;;;;;;;;;;;;;6315498;28;20074;-82
2024/01/03 12:02:33;;;;;;;0.10;0.10;;;;;;;;;;6308532;28;19905;-84
2024/01/03 12:05:42;;;;;;;0.10;0.10;;;;;;;;;;6306423;28;20031;-82
2024/01/03 12:08:43;;;;;;;0.10;0.10;;;;;;;;;;6306602;28;20028;-85
2024/01/03 12:11:43;;;;;;;0.10;0.10;;;;;;;;;;6306566;28;20078;-85
2024/01/03 12:14:49;;;;;;;0.10;0.10;;;;;;;;;;6305987;28;20545;-85
2024/01/03 12:17:49;;;;;;;0.10;0.10;;;;;;;;;;6288633;28;20146;-85
2024/01/03 12:20:51;;;;;;;0.10;0.10;;;;;;;;;;6304943;28;20005;-85
2024/01/03 12:23:51;;;;;;;;;;;;;;;;;;6315356;28;20042;-80
2024/01/03 12:26:51;;;;;;;0.10;0.10;;;;;;;;;;6292448;28;20022;-80
2024/01/03 12:30:08;;;;;;;0.10;0.10;;;;;;;;;;6295720;28;20075;-80
2024/01/03 12:33:13;;;;;;;0.10;0.10;;;;;;;;;;6305311;28;20020;-84
2024/01/03 12:36:15;;;;;;;0.10;0.10;;;;;;;;;;6312045;28;20047;-80
2024/01/03 12:39:15;;;;;;;0.10;0.10;;;;;;;;;;6310917;28;20024;-79
2024/01/03 12:42:16;;;;;;;0.10;0.10;;;;;;;;;;6312963;28;20524;-80
2024/01/03 12:45:16;;;;;;;0.10;0.10;;;;;;;;;;6311050;28;20058;-79
2024/01/03 12:48:16;;;;;;;0.10;0.10;;;;;;;;;;6299421;28;20024;-79
2024/01/03 12:51:17;;;;;;;0.10;0.10;;;;;;;;;;6294424;28;20027;-80
2024/01/03 12:54:17;;;;;;;0.10;0.10;;;;;;;;;;6296829;28;20506;-80
2024/01/03 12:57:17;;;;;;;0.10;0.10;;;;;;;;;;6304363;28;20421;-79
2024/01/03 13:00:17;;;;;;;0.10;0.10;;;;;;;;;;6305937;28;20032;-79
2024/01/03 13:03:17;;;;;;;0.10;0.10;;;;;;;;;;6302918;28;20032;-82
2024/01/03 13:06:17;;;;;;;0.10;0.10;;;;;;;;;;6309750;28;20028;-84
2024/01/03 13:09:23;;;;;;;0.10;0.10;;;;;;;;;;6312264;28;20393;-85
2024/01/03 13:12:23;;;;;;;0.10;0.10;;;;;;;;;;6312972;28;20019;-84
2024/01/03 13:15:24;;;;;;;0.10;0.10;;;;;;;;;;6316102;28;20413;-79
2024/01/03 13:18:24;;;;;;;0.10;0.10;;;;;;;;;;6312756;28;20027;-79
2024/01/03 13:21:24;;;;;;;0.10;0.10;;;;;;;;;;6318249;28;20406;-79
2024/01/03 13:24:25;;;;;;;0.10;0.10;;;;;;;;;;6314614;28;20482;-84
2024/01/03 13:27:25;;;;;;;0.10;0.10;;;;;;;;;;6307034;28;20036;-83
2024/01/03 13:30:25;;;;;;;0.10;0.10;;;;;;;;;;6296731;28;20478;-84
2024/01/03 13:33:26;;;;;;;0.10;0.10;;;;;;;;;;6293274;28;20103;-84
2024/01/03 13:36:26;;;;;;;0.10;0.10;;;;;;;;;;6310646;28;20355;-84
2024/01/03 13:39:27;;;;;;;0.10;0.10;;;;;;;;;;6321104;28;20472;-83
2024/01/03 13:42:28;;;;;;;0.10;0.10;;;;;;;;;;6299365;28;20042;-84
2024/01/03 13:45:28;;;;;;;0.10;0.10;;;;;;;;;;6311104;28;20352;-84
2024/01/03 13:48:28;;;;;;;0.10;0.10;;;;;;;;;;6300338;28;20023;-85
2024/01/03 13:51:29;;;;;;;0.20;0.20;;;;;;;;;;6310451;28;20290;-85
2024/01/03 13:54:29;;;;;;;0.10;0.10;;;;;;;;;;6307544;28;20024;-79
2024/01/03 13:57:29;;;;;;;0.10;0.10;;;;;;;;;;6315122;28;20025;-79
2024/01/03 14:00:30;;;;;;;0.13;0.13;;;;;;;;;;6320626;28;20059;-79
2024/01/03 14:03:31;;;;;;;0.10;0.10;;;;;;;;;;6286337;28;20020;-85
2024/01/03 14:06:31;;;;;;;0.10;0.10;;;;;;;;;;6302946;28;20027;-84
2024/01/03 14:09:31;;;;;;;0.10;0.10;;;;;;;;;;6302077;28;20398;-85
2024/01/03 14:12:31;;;;;;;0.10;0.10;;;;;;;;;;6298785;28;20056;-86
2024/01/03 14:15:31;;;;;;;0.10;0.10;;;;;;;;;;6311239;28;20023;-87
2024/01/03 14:18:32;;;;;;;0.20;0.20;;;;;;;;;;6305090;28;20044;-84
2024/01/03 14:21:32;;;;;;;0.10;0.10;;;;;;;;;;6301022;28;20049;-87
2024/01/03 14:24:32;;;;;;;0.10;0.10;;;;;;;;;;6300807;28;20028;-87
2024/01/03 14:27:33;;;;;;;0.10;0.10;;;;;;;;;;6312217;28;20513;-86
2024/01/03 14:30:33;;;;;;;0.10;0.10;;;;;;;;;;6282493;28;20028;-87
2024/01/03 14:33:33;;;;;;;0.10;0.10;;;;;;;;;;6300100;28;20023;-87
2024/01/03 14:36:33;;;;;;;0.10;0.10;;;;;;;;;;6312849;28;20012;-87
2024/01/03 14:39:34;;;;;;;0.10;0.10;;;;;;;;;;6307472;28;20028;-87
2024/01/03 14:42:37;;;;;;;0.10;0.10;;;;;;;;;;6319930;28;20466;-87
2024/01/03 14:45:38;;;;;;;0.10;0.10;;;;;;;;;;6311718;28;20027;-86
2024/01/03 14:48:38;;;;;;;0.10;0.10;;;;;;;;;;6306811;28;20398;-86
2024/01/03 14:51:38;;;;;;;0.17;0.17;;;;;;;;;;6319214;28;20051;-87
2024/01/03 14:54:38;;;;;;;0.10;0.10;;;;;;;;;;6319837;28;20012;-87
2024/01/03 14:57:39;;;;;;;0.10;0.10;;;;;;;;;;6294188;28;20081;-86
2024/01/03 15:00:39;;;;;;;0.10;0.10;;;;;;;;;;6300610;28;20478;-86
2024/01/03 15:03:39;;;;;;;0.20;0.20;;;;;;;;;;6294715;28;20020;-81
2024/01/03 15:06:39;;;;;;;0.10;0.10;;;;;;;;;;6309542;28;20021;-79
2024/01/03 15:09:39;;;;;;;0.10;0.10;;;;;;;;;;6306739;28;20043;-80
2024/01/03 15:12:40;;;;;;;0.10;0.10;;;;;;;;;;6305956;28;20032;-80
2024/01/03 15:15:42;;;;;;;0.20;0.20;;;;;;;;;;6298701;28;20057;-81
2024/01/03 15:18:42;;;;;;;0.10;0.10;;;;;;;;;;6316452;28;20032;-80
2024/01/03 15:22:19;;;;;;;0.10;0.10;;;;;;;;;;6301680;28;20156;-80
2024/01/03 15:25:19;;;;;;;0.10;0.10;;;;;;;;;;6197844;28;20076;-85
2024/01/03 15:28:20;;;;;;;0.10;0.10;;;;;;;;;;6311829;28;20139;-85
2024/01/03 15:31:22;;;;;;;0.20;0.20;;;;;;;;;;6318557;28;20028;-86
2024/01/03 15:34:24;;;;;;;0.10;0.10;;;;;;;;;;6291463;28;20023;-86
2024/01/03 15:37:25;;;;;;;0.10;0.10;;;;;;;;;;6312908;28;20475;-84
2024/01/03 15:40:25;;;;;;;0.20;0.20;;;;;;;;;;6317695;28;20027;-85
2024/01/03 15:43:28;;;;;;;0.20;0.20;;;;;;;;;;6316133;28;20032;-82
2024/01/03 15:46:28;;;;;;;0.17;0.17;;;;;;;;;;6297206;28;20147;-80
2024/01/03 15:49:29;;;;;;;0.10;0.10;;;;;;;;;;6298177;28;20450;-81
2024/01/03 15:52:29;;;;;;;0.10;0.10;;;;;;;;;;6311683;28;20020;-80
2024/01/03 15:55:30;;;;;;;0.10;0.10;;;;;;;;;;6314746;28;20020;-80
2024/01/03 15:58:30;;;;;;;0.10;0.10;;;;;;;;;;6312597;28;20031;-80
2024/01/03 16:01:30;;;;;;;0.10;0.10;;;;;;;;;;6311717;28;20020;-77
2024/01/03 16:04:30;;;;;;;0.10;0.10;;;;;;;;;;6313107;28;20081;-77
2024/01/03 16:07:31;;;;;;;0.10;0.10;;;;;;;;;;6291257;28;20073;-76
2024/01/03 16:10:31;;;;;;;0.10;0.10;;;;;;;;;;6308670;28;20032;-76
2024/01/03 16:13:31;;;;;;;0.20;0.20;;;;;;;;;;6311521;28;20336;-76
2024/01/03 16:16:35;;;;;;;0.20;0.20;;;;;;;;;;6289873;28;20020;-76
2024/01/03 16:19:35;;;;;;;0.10;0.10;;;;;;;;;;6298880;28;20020;-77
2024/01/03 16:22:35;;;;;;;0.20;0.20;;;;;;;;;;6305220;28;20111;-77
2024/01/03 16:25:35;;;;;;;0.20;0.20;;;;;;;;;;6291440;28;20041;-76
2024/01/03 16:28:37;;;;;;;0.17;0.17;;;;;;;;;;6316445;28;20109;-78
2024/01/03 16:31:53;;;;;;;0.20;0.20;;;;;;;;;;6316264;28;20394;-78
2024/01/03 16:34:53;;;;;;;0.17;0.17;;;;;;;;;;6286415;28;20015;-82
2024/01/03 16:37:53;;;;;;;0.17;0.17;;;;;;;;;;6295682;28;20032;-82
2024/01/03 16:40:54;;;;;;;0.10;0.10;;;;;;;;;;6295217;28;20457;-83
2024/01/03 16:43:54;;;;;;;0.10;0.10;;;;;;;;;;6293093;28;20550;-84
2024/01/03 16:46:55;;;;;;;0.10;0.10;;;;;;;;;;6311754;28;20027;-83
2024/01/03 16:49:55;;;;;;;0.20;0.20;;;;;;;;;;6287609;28;20013;-82
2024/01/03 16:52:55;;;;;;;0.13;0.13;;;;;;;;;;6302063;28;20103;-82
2024/01/03 16:55:56;;;;;;;0.20;0.20;;;;;;;;;;6316288;28;20016;-83
2024/01/03 16:58:57;;;;;;;0.20;0.20;;;;;;;;;;6315437;28;20066;-84
2024/01/03 17:01:57;;;;;;;0.10;0.10;;;;;;;;;;6287255;28;20409;-84
2024/01/03 17:04:57;;;;;;;0.20;0.20;;;;;;;;;;6295827;28;20062;-84
2024/01/03 17:07:58;;;;;;;0.20;0.20;;;;;;;;;;6314142;28;20020;-84
2024/01/03 17:10:58;;;;;;;0.20;0.20;;;;;;;;;;6287529;28;20016;-84
2024/01/03 17:14:00;;;;;;;0.20;0.20;;;;;;;;;;6303271;28;20097;-84
2024/01/03 17:17:00;;;;;;;0.10;0.10;;;;;;;;;;6310664;28;20099;-81
2024/01/03 17:20:01;;;;;;;0.20;0.20;;;;;;;;;;6312583;28;20554;-81
2024/01/03 17:23:01;;;;;;;0.15;0.15;;;;;;;;;;6303691;28;20387;-79
2024/01/03 17:26:02;;;;;;;0.20;0.20;;;;;;;;;;6285852;28;20051;-80
2024/01/03 17:29:03;;;;;;;0.20;0.20;;;;;;;;;;6295575;28;20513;-79
2024/01/03 17:32:03;;;;;;;0.10;0.10;;;;;;;;;;6313699;28;20026;-81
2024/01/03 17:35:04;;;;;;;0.20;0.20;;;;;;;;;;6313552;28;20016;-80
2024/01/03 17:38:04;;;;;;;0.20;0.20;;;;;;;;;;6314518;28;20087;-79
2024/01/03 17:41:08;;;;;;;0.20;0.20;;;;;;;;;;6291408;28;20016;-81
2024/01/03 17:44:09;;;;;;;0.20;0.20;;;;;;;;;;6313082;28;20476;-77
2024/01/03 17:47:09;;;;;;;0.20;0.20;;;;;;;;;;6303825;28;20089;-78
2024/01/03 17:50:09;;;;;;;0.10;0.10;;;;;;;;;;6313999;28;20539;-77
2024/01/03 17:53:10;;;;;;;0.20;0.20;;;;;;;;;;6314299;28;20122;-78
2024/01/03 17:56:10;;;;;;;0.20;0.20;;;;;;;;;;6308890;28;20012;-77
2024/01/03 17:59:13;;;;;;;0.10;0.10;;;;;;;;;;6280951;28;20021;-79
2024/01/03 18:02:14;;;;;;;0.20;0.20;;;;;;;;;;6309376;28;20045;-79
2024/01/03 18:05:14;;;;;;;0.20;0.20;;;;;;;;;;6311888;28;20107;-80